sensor_id;sensor_type;location;lat;lon;timestamp;temperature;humidity
8711;DHT22;4392;47.400;8.062;2023-10-09T00:01:42;19.00;99.90
8711;DHT22;4392;47.400;8.062;2023-10-09T00:04:12;19.10;99.90
8711;DHT22;4392;47.400;8.062;2023-10-09T00:06:42;19.00;99.90
8711;DHT22;4392;47.400;8.062;2023-10-09T00:09:08;19.00;99.90
8711;DHT22;4392;47.400;8.062;2023-10-09T00:11:43;19.00;99.90
8711;DHT22;4392;47.400;8.062;2023-10-09T00:14:11;19.00;99.90
8711;DHT22;4392;47.400;8.062;2023-10-09T00:16:36;19.00;99.90
8711;DHT22;4392;47.400;8.062;2023-10-09T00:19:09;18.80;99.90
8711;DHT22;4392;47.400;8.062;2023-10-09T00:21:56;18.50;99.90
8711;DHT22;4392;47.400;8.062;2023-10-09T00:24:24;18.10;99.90
8711;DHT22;4392;47.400;8.062;2023-10-09T00:26:50;18.10;99.90
8711;DHT22;4392;47.400;8.062;2023-10-09T00:29:17;18.00;99.90
8711;DHT22;4392;47.400;8.062;2023-10-09T00:31:53;17.90;99.90
8711;DHT22;4392;47.400;8.062;2023-10-09T00:34:29;17.90;99.90
8711;DHT22;4392;47.400;8.062;2023-10-09T00:36:54;17.80;99.90
8711;DHT22;4392;47.400;8.062;2023-10-09T00:39:22;17.70;99.90
8711;DHT22;4392;47.400;8.062;2023-10-09T00:42:05;17.70;99.90
8711;DHT22;4392;47.400;8.062;2023-10-09T00:44:37;17.70;99.90
8711;DHT22;4392;47.400;8.062;2023-10-09T00:47:08;17.70;99.90
8711;DHT22;4392;47.400;8.062;2023-10-09T00:50:06;17.70;99.90
8711;DHT22;4392;47.400;8.062;2023-10-09T00:52:44;17.60;99.90
8711;DHT22;4392;47.400;8.062;2023-10-09T00:55:18;17.60;99.90
8711;DHT22;4392;47.400;8.062;2023-10-09T00:58:02;17.60;99.90
8711;DHT22;4392;47.400;8.062;2023-10-09T01:00:31;17.60;99.90
8711;DHT22;4392;47.400;8.062;2023-10-09T01:02:58;17.50;99.90
8711;DHT22;4392;47.400;8.062;2023-10-09T01:05:38;17.50;99.90
8711;DHT22;4392;47.400;8.062;2023-10-09T01:08:11;17.50;99.90
8711;DHT22;4392;47.400;8.062;2023-10-09T01:10:49;17.50;99.90
8711;DHT22;4392;47.400;8.062;2023-10-09T01:13:36;17.50;99.90
8711;DHT22;4392;47.400;8.062;2023-10-09T01:16:12;17.40;99.90
8711;DHT22;4392;47.400;8.062;2023-10-09T01:18:46;17.40;99.90
8711;DHT22;4392;47.400;8.062;2023-10-09T01:21:16;17.30;99.90
8711;DHT22;4392;47.400;8.062;2023-10-09T01:23:43;17.20;99.90
8711;DHT22;4392;47.400;8.062;2023-10-09T01:26:39;17.20;99.90
8711;DHT22;4392;47.400;8.062;2023-10-09T01:29:06;17.20;99.90
8711;DHT22;4392;47.400;8.062;2023-10-09T01:31:54;17.30;99.90
8711;DHT22;4392;47.400;8.062;2023-10-09T01:34:47;17.20;99.90
8711;DHT22;4392;47.400;8.062;2023-10-09T01:37:18;17.20;99.90
8711;DHT22;4392;47.400;8.062;2023-10-09T01:39:56;17.20;99.90
8711;DHT22;4392;47.400;8.062;2023-10-09T01:42:45;17.20;99.90
8711;DHT22;4392;47.400;8.062;2023-10-09T01:45:14;17.10;99.90
8711;DHT22;4392;47.400;8.062;2023-10-09T01:47:45;17.10;99.90
8711;DHT22;4392;47.400;8.062;2023-10-09T01:50:17;17.20;99.90
8711;DHT22;4392;47.400;8.062;2023-10-09T01:53:02;17.50;99.90
8711;DHT22;4392;47.400;8.062;2023-10-09T01:55:31;17.40;99.90
8711;DHT22;4392;47.400;8.062;2023-10-09T01:58:05;17.30;99.90
8711;DHT22;4392;47.400;8.062;2023-10-09T02:00:42;17.20;99.90
8711;DHT22;4392;47.400;8.062;2023-10-09T02:03:09;17.10;99.90
8711;DHT22;4392;47.400;8.062;2023-10-09T02:05:38;17.10;99.90
8711;DHT22;4392;47.400;8.062;2023-10-09T02:08:04;17.10;99.90
8711;DHT22;4392;47.400;8.062;2023-10-09T02:10:31;17.10;99.90
8711;DHT22;4392;47.400;8.062;2023-10-09T02:13:05;17.10;99.90
8711;DHT22;4392;47.400;8.062;2023-10-09T02:15:38;17.50;99.90
8711;DHT22;4392;47.400;8.062;2023-10-09T02:18:12;17.30;99.90
8711;DHT22;4392;47.400;8.062;2023-10-09T02:23:28;17.00;99.90
8711;DHT22;4392;47.400;8.062;2023-10-09T02:26:19;16.80;99.90
8711;DHT22;4392;47.400;8.062;2023-10-09T02:28:56;16.80;99.90
8711;DHT22;4392;47.400;8.062;2023-10-09T02:31:28;16.90;99.90
8711;DHT22;4392;47.400;8.062;2023-10-09T02:34:01;16.90;99.90
8711;DHT22;4392;47.400;8.062;2023-10-09T02:36:30;17.30;99.90
8711;DHT22;4392;47.400;8.062;2023-10-09T02:38:56;17.40;99.90
8711;DHT22;4392;47.400;8.062;2023-10-09T02:41:22;17.20;99.90
8711;DHT22;4392;47.400;8.062;2023-10-09T02:43:53;17.10;99.90
8711;DHT22;4392;47.400;8.062;2023-10-09T02:46:21;17.00;99.90
8711;DHT22;4392;47.400;8.062;2023-10-09T02:48:55;16.90;99.90
8711;DHT22;4392;47.400;8.062;2023-10-09T02:51:26;16.80;99.90
8711;DHT22;4392;47.400;8.062;2023-10-09T02:53:56;16.80;99.90
8711;DHT22;4392;47.400;8.062;2023-10-09T02:56:26;16.70;99.90
8711;DHT22;4392;47.400;8.062;2023-10-09T02:59:08;16.70;99.90
8711;DHT22;4392;47.400;8.062;2023-10-09T03:01:35;16.70;99.90
8711;DHT22;4392;47.400;8.062;2023-10-09T03:04:06;16.70;99.90
8711;DHT22;4392;47.400;8.062;2023-10-09T03:06:33;16.70;99.90
8711;DHT22;4392;47.400;8.062;2023-10-09T03:09:00;16.60;99.90
8711;DHT22;4392;47.400;8.062;2023-10-09T03:11:26;16.60;99.90
8711;DHT22;4392;47.400;8.062;2023-10-09T03:13:57;16.60;99.90
8711;DHT22;4392;47.400;8.062;2023-10-09T03:16:23;16.50;99.90
8711;DHT22;4392;47.400;8.062;2023-10-09T03:18:50;16.60;99.90
8711;DHT22;4392;47.400;8.062;2023-10-09T03:21:16;16.50;99.90
8711;DHT22;4392;47.400;8.062;2023-10-09T03:23:46;16.50;99.90
8711;DHT22;4392;47.400;8.062;2023-10-09T03:26:18;16.60;99.90
8711;DHT22;4392;47.400;8.062;2023-10-09T03:28:48;16.50;99.90
8711;DHT22;4392;47.400;8.062;2023-10-09T03:31:14;16.50;99.90
8711;DHT22;4392;47.400;8.062;2023-10-09T03:33:40;16.50;99.90
8711;DHT22;4392;47.400;8.062;2023-10-09T03:36:07;16.50;99.90
8711;DHT22;4392;47.400;8.062;2023-10-09T03:38:40;16.40;99.90
8711;DHT22;4392;47.400;8.062;2023-10-09T03:41:08;16.40;99.90
8711;DHT22;4392;47.400;8.062;2023-10-09T03:43:38;16.40;99.90
8711;DHT22;4392;47.400;8.062;2023-10-09T03:46:10;16.40;99.90
8711;DHT22;4392;47.400;8.062;2023-10-09T03:48:58;16.40;99.90
8711;DHT22;4392;47.400;8.062;2023-10-09T03:51:29;16.30;99.90
8711;DHT22;4392;47.400;8.062;2023-10-09T03:53:55;16.30;99.90
8711;DHT22;4392;47.400;8.062;2023-10-09T03:56:21;16.30;99.90
8711;DHT22;4392;47.400;8.062;2023-10-09T03:58:48;16.30;99.90
8711;DHT22;4392;47.400;8.062;2023-10-09T04:01:16;16.30;99.90
8711;DHT22;4392;47.400;8.062;2023-10-09T04:03:51;16.30;99.90
8711;DHT22;4392;47.400;8.062;2023-10-09T04:06:41;16.30;99.90
8711;DHT22;4392;47.400;8.062;2023-10-09T04:09:09;16.20;99.90
8711;DHT22;4392;47.400;8.062;2023-10-09T04:11:54;16.20;99.90
8711;DHT22;4392;47.400;8.062;2023-10-09T04:14:38;15.90;99.90
8711;DHT22;4392;47.400;8.062;2023-10-09T04:17:20;16.00;99.90
8711;DHT22;4392;47.400;8.062;2023-10-09T04:19:48;16.20;99.90
8711;DHT22;4392;47.400;8.062;2023-10-09T04:22:34;16.20;99.90
8711;DHT22;4392;47.400;8.062;2023-10-09T04:25:05;16.20;99.90
8711;DHT22;4392;47.400;8.062;2023-10-09T04:27:40;16.20;99.90
8711;DHT22;4392;47.400;8.062;2023-10-09T04:30:06;16.20;99.90
8711;DHT22;4392;47.400;8.062;2023-10-09T04:32:41;16.20;99.90
8711;DHT22;4392;47.400;8.062;2023-10-09T04:35:13;16.20;99.90
8711;DHT22;4392;47.400;8.062;2023-10-09T04:37:45;16.20;99.90
8711;DHT22;4392;47.400;8.062;2023-10-09T04:40:18;16.20;99.90
8711;DHT22;4392;47.400;8.062;2023-10-09T04:43:03;16.20;99.90
8711;DHT22;4392;47.400;8.062;2023-10-09T04:45:36;16.30;99.90
8711;DHT22;4392;47.400;8.062;2023-10-09T04:48:20;16.20;99.90
8711;DHT22;4392;47.400;8.062;2023-10-09T04:50:59;16.20;99.90
8711;DHT22;4392;47.400;8.062;2023-10-09T04:53:43;16.20;99.90
8711;DHT22;4392;47.400;8.062;2023-10-09T04:56:13;16.10;99.90
8711;DHT22;4392;47.400;8.062;2023-10-09T04:58:41;16.00;99.90
8711;DHT22;4392;47.400;8.062;2023-10-09T05:01:07;16.00;99.90
8711;DHT22;4392;47.400;8.062;2023-10-09T05:03:39;16.00;99.90
8711;DHT22;4392;47.400;8.062;2023-10-09T05:06:05;16.00;99.90
8711;DHT22;4392;47.400;8.062;2023-10-09T05:08:50;16.00;99.90
8711;DHT22;4392;47.400;8.062;2023-10-09T05:11:22;16.00;99.90
8711;DHT22;4392;47.400;8.062;2023-10-09T05:14:19;16.00;99.90
8711;DHT22;4392;47.400;8.062;2023-10-09T05:16:55;16.00;99.90
8711;DHT22;4392;47.400;8.062;2023-10-09T05:19:22;16.10;99.90
8711;DHT22;4392;47.400;8.062;2023-10-09T05:22:09;16.10;99.90
8711;DHT22;4392;47.400;8.062;2023-10-09T05:24:43;16.00;99.90
8711;DHT22;4392;47.400;8.062;2023-10-09T05:27:12;15.90;99.90
8711;DHT22;4392;47.400;8.062;2023-10-09T05:29:44;15.90;99.90
8711;DHT22;4392;47.400;8.062;2023-10-09T05:32:25;15.90;99.90
8711;DHT22;4392;47.400;8.062;2023-10-09T05:34:55;15.80;99.90
8711;DHT22;4392;47.400;8.062;2023-10-09T05:37:30;15.80;99.90
8711;DHT22;4392;47.400;8.062;2023-10-09T05:40:01;16.10;99.90
8711;DHT22;4392;47.400;8.062;2023-10-09T05:42:28;16.60;99.90
8711;DHT22;4392;47.400;8.062;2023-10-09T05:47:52;16.30;99.90
8711;DHT22;4392;47.400;8.062;2023-10-09T05:50:21;16.20;99.90
8711;DHT22;4392;47.400;8.062;2023-10-09T05:52:47;16.20;99.90
8711;DHT22;4392;47.400;8.062;2023-10-09T05:55:23;16.10;99.90
8711;DHT22;4392;47.400;8.062;2023-10-09T06:00:36;16.20;99.90
8711;DHT22;4392;47.400;8.062;2023-10-09T06:03:20;16.20;99.90
8711;DHT22;4392;47.400;8.062;2023-10-09T06:08:31;16.20;99.90
8711;DHT22;4392;47.400;8.062;2023-10-09T06:11:12;16.20;99.90
8711;DHT22;4392;47.400;8.062;2023-10-09T06:13:58;16.20;99.90
8711;DHT22;4392;47.400;8.062;2023-10-09T06:16:39;16.10;99.90
8711;DHT22;4392;47.400;8.062;2023-10-09T06:19:12;16.10;99.90
8711;DHT22;4392;47.400;8.062;2023-10-09T06:21:39;16.10;99.90
8711;DHT22;4392;47.400;8.062;2023-10-09T06:24:08;16.10;99.90
8711;DHT22;4392;47.400;8.062;2023-10-09T06:26:37;16.10;99.90
8711;DHT22;4392;47.400;8.062;2023-10-09T06:29:02;16.20;99.90
8711;DHT22;4392;47.400;8.062;2023-10-09T06:31:40;16.20;99.90
8711;DHT22;4392;47.400;8.062;2023-10-09T06:34:32;16.20;99.90
8711;DHT22;4392;47.400;8.062;2023-10-09T06:37:01;16.70;99.90
8711;DHT22;4392;47.400;8.062;2023-10-09T06:39:43;17.00;99.90
8711;DHT22;4392;47.400;8.062;2023-10-09T06:42:24;17.30;99.90
8711;DHT22;4392;47.400;8.062;2023-10-09T06:45:11;17.50;99.90
8711;DHT22;4392;47.400;8.062;2023-10-09T06:47:46;17.50;99.90
8711;DHT22;4392;47.400;8.062;2023-10-09T06:50:22;17.60;99.90
8711;DHT22;4392;47.400;8.062;2023-10-09T06:52:54;17.60;99.90
8711;DHT22;4392;47.400;8.062;2023-10-09T06:55:24;17.70;99.90
8711;DHT22;4392;47.400;8.062;2023-10-09T06:58:20;17.80;99.90
8711;DHT22;4392;47.400;8.062;2023-10-09T07:00:52;17.90;99.90
8711;DHT22;4392;47.400;8.062;2023-10-09T07:03:27;17.90;99.90
8711;DHT22;4392;47.400;8.062;2023-10-09T07:06:09;18.00;99.90
8711;DHT22;4392;47.400;8.062;2023-10-09T07:08:38;18.10;99.90
8711;DHT22;4392;47.400;8.062;2023-10-09T07:11:10;18.10;99.90
8711;DHT22;4392;47.400;8.062;2023-10-09T07:14:14;18.20;99.90
8711;DHT22;4392;47.400;8.062;2023-10-09T07:16:59;18.20;99.90
8711;DHT22;4392;47.400;8.062;2023-10-09T07:19:44;18.20;99.90
8711;DHT22;4392;47.400;8.062;2023-10-09T07:22:13;18.20;99.90
8711;DHT22;4392;47.400;8.062;2023-10-09T07:24:55;18.20;99.90
8711;DHT22;4392;47.400;8.062;2023-10-09T07:27:39;18.30;99.90
8711;DHT22;4392;47.400;8.062;2023-10-09T07:30:17;18.30;99.90
8711;DHT22;4392;47.400;8.062;2023-10-09T07:35:41;18.20;99.90
8711;DHT22;4392;47.400;8.062;2023-10-09T07:38:21;18.20;99.90
8711;DHT22;4392;47.400;8.062;2023-10-09T07:41:01;18.20;99.90
8711;DHT22;4392;47.400;8.062;2023-10-09T07:46:18;18.30;99.90
8711;DHT22;4392;47.400;8.062;2023-10-09T07:48:59;18.50;99.90
8711;DHT22;4392;47.400;8.062;2023-10-09T07:51:37;18.40;99.90
8711;DHT22;4392;47.400;8.062;2023-10-09T07:54:03;18.30;99.90
8711;DHT22;4392;47.400;8.062;2023-10-09T07:56:35;18.50;99.90
8711;DHT22;4392;47.400;8.062;2023-10-09T07:59:07;18.60;99.90
8711;DHT22;4392;47.400;8.062;2023-10-09T08:01:42;18.60;99.90
8711;DHT22;4392;47.400;8.062;2023-10-09T08:04:31;18.60;99.90
8711;DHT22;4392;47.400;8.062;2023-10-09T08:07:10;18.60;99.90
8711;DHT22;4392;47.400;8.062;2023-10-09T08:09:45;18.60;99.90
8711;DHT22;4392;47.400;8.062;2023-10-09T08:12:17;18.60;99.90
8711;DHT22;4392;47.400;8.062;2023-10-09T08:15:02;18.60;99.90
8711;DHT22;4392;47.400;8.062;2023-10-09T08:20:17;18.70;99.90
8711;DHT22;4392;47.400;8.062;2023-10-09T08:22:51;18.70;99.90
8711;DHT22;4392;47.400;8.062;2023-10-09T08:25:18;18.70;99.90
8711;DHT22;4392;47.400;8.062;2023-10-09T08:28:01;18.70;99.90
8711;DHT22;4392;47.400;8.062;2023-10-09T08:30:53;18.70;99.90
8711;DHT22;4392;47.400;8.062;2023-10-09T08:33:21;18.80;99.90
8711;DHT22;4392;47.400;8.062;2023-10-09T08:35:54;18.80;99.90
8711;DHT22;4392;47.400;8.062;2023-10-09T08:38:33;18.80;99.90
8711;DHT22;4392;47.400;8.062;2023-10-09T08:41:10;18.80;99.90
8711;DHT22;4392;47.400;8.062;2023-10-09T08:43:50;18.80;99.90
8711;DHT22;4392;47.400;8.062;2023-10-09T08:46:28;18.90;99.90
8711;DHT22;4392;47.400;8.062;2023-10-09T08:48:58;19.00;99.90
8711;DHT22;4392;47.400;8.062;2023-10-09T08:51:26;19.00;99.90
8711;DHT22;4392;47.400;8.062;2023-10-09T08:53:52;18.80;99.90
8711;DHT22;4392;47.400;8.062;2023-10-09T08:56:19;18.80;99.90
8711;DHT22;4392;47.400;8.062;2023-10-09T09:01:17;18.40;99.90
8711;DHT22;4392;47.400;8.062;2023-10-09T09:03:45;18.20;99.90
8711;DHT22;4392;47.400;8.062;2023-10-09T09:06:10;18.20;99.90
8711;DHT22;4392;47.400;8.062;2023-10-09T09:08:40;18.20;99.90
8711;DHT22;4392;47.400;8.062;2023-10-09T09:11:16;18.30;99.90
8711;DHT22;4392;47.400;8.062;2023-10-09T09:14:08;18.30;99.90
8711;DHT22;4392;47.400;8.062;2023-10-09T09:16:45;18.50;99.90
8711;DHT22;4392;47.400;8.062;2023-10-09T09:19:14;18.60;99.90
8711;DHT22;4392;47.400;8.062;2023-10-09T09:21:50;18.70;99.90
8711;DHT22;4392;47.400;8.062;2023-10-09T09:24:20;18.80;99.90
8711;DHT22;4392;47.400;8.062;2023-10-09T09:27:00;18.80;99.90
8711;DHT22;4392;47.400;8.062;2023-10-09T09:32:05;18.90;99.90
8711;DHT22;4392;47.400;8.062;2023-10-09T09:34:51;18.90;99.90
8711;DHT22;4392;47.400;8.062;2023-10-09T09:37:21;18.90;99.90
8711;DHT22;4392;47.400;8.062;2023-10-09T09:39:50;18.90;99.90
8711;DHT22;4392;47.400;8.062;2023-10-09T09:42:18;19.00;99.90
8711;DHT22;4392;47.400;8.062;2023-10-09T09:44:51;19.10;99.90
8711;DHT22;4392;47.400;8.062;2023-10-09T09:47:18;19.10;99.90
8711;DHT22;4392;47.400;8.062;2023-10-09T09:49:56;19.10;99.90
8711;DHT22;4392;47.400;8.062;2023-10-09T09:52:36;19.20;99.90
8711;DHT22;4392;47.400;8.062;2023-10-09T09:55:09;19.30;99.90
8711;DHT22;4392;47.400;8.062;2023-10-09T09:57:48;19.30;99.90
8711;DHT22;4392;47.400;8.062;2023-10-09T10:00:24;19.30;99.90
8711;DHT22;4392;47.400;8.062;2023-10-09T10:03:04;19.30;99.90
8711;DHT22;4392;47.400;8.062;2023-10-09T10:05:34;19.40;99.90
8711;DHT22;4392;47.400;8.062;2023-10-09T10:08:00;19.30;99.90
8711;DHT22;4392;47.400;8.062;2023-10-09T10:10:42;19.40;99.90
8711;DHT22;4392;47.400;8.062;2023-10-09T10:13:18;19.40;99.90
8711;DHT22;4392;47.400;8.062;2023-10-09T10:16:13;19.50;99.90
8711;DHT22;4392;47.400;8.062;2023-10-09T10:19:02;19.50;99.90
8711;DHT22;4392;47.400;8.062;2023-10-09T10:21:37;19.50;99.90
8711;DHT22;4392;47.400;8.062;2023-10-09T10:29:43;19.50;99.90
8711;DHT22;4392;47.400;8.062;2023-10-09T10:32:11;19.50;99.90
8711;DHT22;4392;47.400;8.062;2023-10-09T10:37:38;19.60;99.90
8711;DHT22;4392;47.400;8.062;2023-10-09T10:40:25;19.60;99.90
8711;DHT22;4392;47.400;8.062;2023-10-09T10:43:24;19.60;99.90
8711;DHT22;4392;47.400;8.062;2023-10-09T10:46:08;19.70;99.90
8711;DHT22;4392;47.400;8.062;2023-10-09T10:48:53;19.80;99.90
8711;DHT22;4392;47.400;8.062;2023-10-09T10:51:26;19.80;99.90
8711;DHT22;4392;47.400;8.062;2023-10-09T10:54:01;19.80;99.90
8711;DHT22;4392;47.400;8.062;2023-10-09T10:56:47;19.80;99.90
8711;DHT22;4392;47.400;8.062;2023-10-09T10:59:18;19.70;99.90
8711;DHT22;4392;47.400;8.062;2023-10-09T11:01:53;19.80;99.90
8711;DHT22;4392;47.400;8.062;2023-10-09T11:04:25;19.90;99.90
8711;DHT22;4392;47.400;8.062;2023-10-09T11:07:01;19.90;99.90
8711;DHT22;4392;47.400;8.062;2023-10-09T11:09:54;20.00;99.90
8711;DHT22;4392;47.400;8.062;2023-10-09T11:12:30;19.90;99.90
8711;DHT22;4392;47.400;8.062;2023-10-09T11:15:14;20.00;99.90
8711;DHT22;4392;47.400;8.062;2023-10-09T11:18:05;19.90;99.90
8711;DHT22;4392;47.400;8.062;2023-10-09T11:20:36;20.10;99.90
8711;DHT22;4392;47.400;8.062;2023-10-09T11:23:04;20.20;99.50
8711;DHT22;4392;47.400;8.062;2023-10-09T11:25:47;20.10;99.10
8711;DHT22;4392;47.400;8.062;2023-10-09T11:28:20;20.20;98.40
8711;DHT22;4392;47.400;8.062;2023-10-09T11:31:14;20.20;97.90
8711;DHT22;4392;47.400;8.062;2023-10-09T11:33:46;20.30;98.10
8711;DHT22;4392;47.400;8.062;2023-10-09T11:36:15;20.30;97.70
8711;DHT22;4392;47.400;8.062;2023-10-09T11:38:41;20.20;98.00
8711;DHT22;4392;47.400;8.062;2023-10-09T11:41:19;20.30;98.00
8711;DHT22;4392;47.400;8.062;2023-10-09T11:43:49;20.30;98.00
8711;DHT22;4392;47.400;8.062;2023-10-09T11:46:23;20.30;98.00
8711;DHT22;4392;47.400;8.062;2023-10-09T11:49:13;20.30;98.20
8711;DHT22;4392;47.400;8.062;2023-10-09T11:51:47;20.30;98.50
8711;DHT22;4392;47.400;8.062;2023-10-09T11:54:52;20.30;98.30
8711;DHT22;4392;47.400;8.062;2023-10-09T11:57:22;20.60;97.90
8711;DHT22;4392;47.400;8.062;2023-10-09T12:00:02;20.60;97.90
8711;DHT22;4392;47.400;8.062;2023-10-09T12:02:46;20.60;97.80
8711;DHT22;4392;47.400;8.062;2023-10-09T12:05:12;20.70;97.50
8711;DHT22;4392;47.400;8.062;2023-10-09T12:07:44;20.80;97.60
8711;DHT22;4392;47.400;8.062;2023-10-09T12:10:09;20.70;97.80
8711;DHT22;4392;47.400;8.062;2023-10-09T12:12:36;20.80;97.70
8711;DHT22;4392;47.400;8.062;2023-10-09T12:15:02;20.90;96.90
8711;DHT22;4392;47.400;8.062;2023-10-09T12:17:30;20.90;96.60
8711;DHT22;4392;47.400;8.062;2023-10-09T12:19:56;20.80;96.40
8711;DHT22;4392;47.400;8.062;2023-10-09T12:22:22;20.90;95.70
8711;DHT22;4392;47.400;8.062;2023-10-09T12:24:52;20.90;95.80
8711;DHT22;4392;47.400;8.062;2023-10-09T12:27:18;20.80;96.00
8711;DHT22;4392;47.400;8.062;2023-10-09T12:29:46;20.80;96.20
8711;DHT22;4392;47.400;8.062;2023-10-09T12:32:11;20.80;96.40
8711;DHT22;4392;47.400;8.062;2023-10-09T12:34:38;20.90;96.50
8711;DHT22;4392;47.400;8.062;2023-10-09T12:37:04;20.80;96.70
8711;DHT22;4392;47.400;8.062;2023-10-09T12:39:30;20.80;96.30
8711;DHT22;4392;47.400;8.062;2023-10-09T12:42:08;20.90;96.30
8711;DHT22;4392;47.400;8.062;2023-10-09T12:44:34;21.10;96.20
8711;DHT22;4392;47.400;8.062;2023-10-09T12:47:08;21.10;96.10
8711;DHT22;4392;47.400;8.062;2023-10-09T12:49:37;21.10;95.60
8711;DHT22;4392;47.400;8.062;2023-10-09T12:52:07;21.10;95.50
8711;DHT22;4392;47.400;8.062;2023-10-09T12:54:45;21.10;95.50
8711;DHT22;4392;47.400;8.062;2023-10-09T12:57:14;21.00;95.70
8711;DHT22;4392;47.400;8.062;2023-10-09T12:59:42;21.00;95.70
8711;DHT22;4392;47.400;8.062;2023-10-09T13:02:15;21.10;95.20
8711;DHT22;4392;47.400;8.062;2023-10-09T13:04:54;21.20;95.10
8711;DHT22;4392;47.400;8.062;2023-10-09T13:07:20;21.20;95.10
8711;DHT22;4392;47.400;8.062;2023-10-09T13:09:48;21.20;94.80
8711;DHT22;4392;47.400;8.062;2023-10-09T13:12:36;21.30;94.90
8711;DHT22;4392;47.400;8.062;2023-10-09T13:15:10;21.40;95.00
8711;DHT22;4392;47.400;8.062;2023-10-09T13:17:39;21.50;94.80
8711;DHT22;4392;47.400;8.062;2023-10-09T13:20:06;21.50;94.80
8711;DHT22;4392;47.400;8.062;2023-10-09T13:22:39;21.50;94.80
8711;DHT22;4392;47.400;8.062;2023-10-09T13:25:13;21.50;94.90
8711;DHT22;4392;47.400;8.062;2023-10-09T13:27:43;21.60;94.70
8711;DHT22;4392;47.400;8.062;2023-10-09T13:30:18;21.70;94.10
8711;DHT22;4392;47.400;8.062;2023-10-09T13:32:50;21.70;94.10
8711;DHT22;4392;47.400;8.062;2023-10-09T13:35:19;21.70;94.70
8711;DHT22;4392;47.400;8.062;2023-10-09T13:37:45;21.70;94.70
8711;DHT22;4392;47.400;8.062;2023-10-09T13:40:22;21.70;94.50
8711;DHT22;4392;47.400;8.062;2023-10-09T13:42:55;21.80;94.00
8711;DHT22;4392;47.400;8.062;2023-10-09T13:45:25;21.90;93.70
8711;DHT22;4392;47.400;8.062;2023-10-09T13:47:53;21.80;93.80
8711;DHT22;4392;47.400;8.062;2023-10-09T13:50:20;21.80;94.00
8711;DHT22;4392;47.400;8.062;2023-10-09T13:52:48;21.70;94.30
8711;DHT22;4392;47.400;8.062;2023-10-09T13:55:14;21.80;96.20
8711;DHT22;4392;47.400;8.062;2023-10-09T13:57:45;21.70;97.80
8711;DHT22;4392;47.400;8.062;2023-10-09T14:00:14;21.70;98.40
8711;DHT22;4392;47.400;8.062;2023-10-09T14:02:58;21.60;99.40
8711;DHT22;4392;47.400;8.062;2023-10-09T14:05:29;21.60;99.90
8711;DHT22;4392;47.400;8.062;2023-10-09T14:07:55;21.60;99.90
8711;DHT22;4392;47.400;8.062;2023-10-09T14:10:26;21.70;99.90
8711;DHT22;4392;47.400;8.062;2023-10-09T14:12:56;21.60;99.90
8711;DHT22;4392;47.400;8.062;2023-10-09T14:15:23;21.60;99.90
8711;DHT22;4392;47.400;8.062;2023-10-09T14:17:51;21.60;99.90
8711;DHT22;4392;47.400;8.062;2023-10-09T14:20:21;21.60;99.90
8711;DHT22;4392;47.400;8.062;2023-10-09T14:23:13;21.60;99.90
8711;DHT22;4392;47.400;8.062;2023-10-09T14:25:46;21.70;99.90
8711;DHT22;4392;47.400;8.062;2023-10-09T14:28:17;21.80;99.90
8711;DHT22;4392;47.400;8.062;2023-10-09T14:30:45;21.80;99.90
8711;DHT22;4392;47.400;8.062;2023-10-09T14:33:14;22.00;99.90
8711;DHT22;4392;47.400;8.062;2023-10-09T14:35:48;22.20;99.90
8711;DHT22;4392;47.400;8.062;2023-10-09T14:38:14;22.40;99.90
8711;DHT22;4392;47.400;8.062;2023-10-09T14:40:44;22.60;99.90
8711;DHT22;4392;47.400;8.062;2023-10-09T14:43:10;22.90;99.90
8711;DHT22;4392;47.400;8.062;2023-10-09T14:45:47;23.10;99.10
8711;DHT22;4392;47.400;8.062;2023-10-09T14:48:14;23.20;98.30
8711;DHT22;4392;47.400;8.062;2023-10-09T14:50:47;23.10;97.30
8711;DHT22;4392;47.400;8.062;2023-10-09T14:53:14;23.00;97.20
8711;DHT22;4392;47.400;8.062;2023-10-09T14:56:02;23.10;95.70
8711;DHT22;4392;47.400;8.062;2023-10-09T14:58:29;23.20;95.50
8711;DHT22;4392;47.400;8.062;2023-10-09T15:00:56;23.10;95.40
8711;DHT22;4392;47.400;8.062;2023-10-09T15:03:22;23.10;94.50
8711;DHT22;4392;47.400;8.062;2023-10-09T15:05:49;23.00;94.00
8711;DHT22;4392;47.400;8.062;2023-10-09T15:08:15;22.90;94.70
8711;DHT22;4392;47.400;8.062;2023-10-09T15:10:45;22.90;95.40
8711;DHT22;4392;47.400;8.062;2023-10-09T15:13:13;23.00;95.80
8711;DHT22;4392;47.400;8.062;2023-10-09T15:15:42;22.90;95.70
8711;DHT22;4392;47.400;8.062;2023-10-09T15:18:08;22.90;96.90
8711;DHT22;4392;47.400;8.062;2023-10-09T15:20:35;22.80;96.70
8711;DHT22;4392;47.400;8.062;2023-10-09T15:23:03;22.80;95.90
8711;DHT22;4392;47.400;8.062;2023-10-09T15:25:28;22.80;96.00
8711;DHT22;4392;47.400;8.062;2023-10-09T15:27:54;23.00;95.70
8711;DHT22;4392;47.400;8.062;2023-10-09T15:30:19;23.20;95.00
8711;DHT22;4392;47.400;8.062;2023-10-09T15:32:48;23.20;94.90
8711;DHT22;4392;47.400;8.062;2023-10-09T15:35:15;23.10;94.80
8711;DHT22;4392;47.400;8.062;2023-10-09T15:37:41;23.00;95.40
8711;DHT22;4392;47.400;8.062;2023-10-09T15:40:07;23.00;96.40
8711;DHT22;4392;47.400;8.062;2023-10-09T15:42:48;23.00;97.30
8711;DHT22;4392;47.400;8.062;2023-10-09T15:45:21;22.90;97.30
8711;DHT22;4392;47.400;8.062;2023-10-09T15:47:50;22.80;97.40
8711;DHT22;4392;47.400;8.062;2023-10-09T15:50:19;22.80;97.20
8711;DHT22;4392;47.400;8.062;2023-10-09T15:52:53;22.80;97.20
8711;DHT22;4392;47.400;8.062;2023-10-09T15:55:20;22.80;97.30
8711;DHT22;4392;47.400;8.062;2023-10-09T15:57:46;22.70;97.20
8711;DHT22;4392;47.400;8.062;2023-10-09T16:00:14;22.70;96.30
8711;DHT22;4392;47.400;8.062;2023-10-09T16:02:44;22.70;96.40
8711;DHT22;4392;47.400;8.062;2023-10-09T16:05:12;22.80;96.50
8711;DHT22;4392;47.400;8.062;2023-10-09T16:07:39;22.90;96.90
8711;DHT22;4392;47.400;8.062;2023-10-09T16:10:09;22.90;96.40
8711;DHT22;4392;47.400;8.062;2023-10-09T16:12:40;23.00;96.20
8711;DHT22;4392;47.400;8.062;2023-10-09T16:15:08;23.00;96.30
8711;DHT22;4392;47.400;8.062;2023-10-09T16:17:37;23.00;96.50
8711;DHT22;4392;47.400;8.062;2023-10-09T16:20:08;22.90;96.40
8711;DHT22;4392;47.400;8.062;2023-10-09T16:22:42;22.90;97.20
8711;DHT22;4392;47.400;8.062;2023-10-09T16:25:11;22.90;97.30
8711;DHT22;4392;47.400;8.062;2023-10-09T16:27:39;22.80;98.20
8711;DHT22;4392;47.400;8.062;2023-10-09T16:30:14;22.80;98.40
8711;DHT22;4392;47.400;8.062;2023-10-09T16:32:44;22.70;99.50
8711;DHT22;4392;47.400;8.062;2023-10-09T16:35:11;22.70;99.90
8711;DHT22;4392;47.400;8.062;2023-10-09T16:37:36;22.50;99.90
8711;DHT22;4392;47.400;8.062;2023-10-09T16:40:02;22.50;99.90
8711;DHT22;4392;47.400;8.062;2023-10-09T16:42:32;22.40;99.90
8711;DHT22;4392;47.400;8.062;2023-10-09T16:45:02;22.40;99.90
8711;DHT22;4392;47.400;8.062;2023-10-09T16:47:34;22.30;99.90
8711;DHT22;4392;47.400;8.062;2023-10-09T16:50:06;22.20;99.90
8711;DHT22;4392;47.400;8.062;2023-10-09T16:52:35;22.10;99.90
8711;DHT22;4392;47.400;8.062;2023-10-09T16:55:05;22.10;99.90
8711;DHT22;4392;47.400;8.062;2023-10-09T16:57:43;22.00;99.90
8711;DHT22;4392;47.400;8.062;2023-10-09T17:00:16;22.10;99.90
8711;DHT22;4392;47.400;8.062;2023-10-09T17:03:01;22.30;99.90
8711;DHT22;4392;47.400;8.062;2023-10-09T17:05:32;22.30;99.90
8711;DHT22;4392;47.400;8.062;2023-10-09T17:07:59;22.30;99.90
8711;DHT22;4392;47.400;8.062;2023-10-09T17:10:25;22.30;99.90
8711;DHT22;4392;47.400;8.062;2023-10-09T17:12:53;22.30;99.90
8711;DHT22;4392;47.400;8.062;2023-10-09T17:15:19;22.20;99.90